Time;durP1;ratioP1;P1;durP2;ratioP2;P2;SDS_P1;SDS_P2;PMS_P1;PMS_P2;Temp;Humidity;BMP_temperature;BMP_pressure;BME280_temperature;BME280_humidity;BME280_pressure;Samples;Min_cycle;Max_cycle;Signal;HPM_P1;HPM_P2
2021/05/18 00:02:15;;;;;;;13.95;4.63;;;;;;;;;;4909627;28;20036;-56
2021/05/18 00:04:42;;;;;;;14.40;4.53;;;;;;;;;;4910010;29;20047;-62
2021/05/18 00:07:12;;;;;;;16.52;4.47;;;;;;;;;;4929345;29;20088;-63
2021/05/18 00:12:24;;;;;;;14.05;4.90;;;;;;;;;;4928079;29;20039;-60
2021/05/18 00:14:50;;;;;;;12.43;4.65;;;;;;;;;;4925729;29;20040;-60
2021/05/18 00:17:16;;;;;;;15.48;4.28;;;;;;;;;;4911109;29;20044;-57
2021/05/18 00:19:42;;;;;;;17.42;4.93;;;;;;;;;;4909273;29;20032;-62
2021/05/18 00:22:08;;;;;;;14.60;4.45;;;;;;;;;;4908463;29;20054;-60
2021/05/18 00:24:34;;;;;;;13.68;4.32;;;;;;;;;;4910342;29;20134;-63
2021/05/18 00:27:03;;;;;;;12.63;4.90;;;;;;;;;;4908518;29;20044;-64
2021/05/18 00:29:31;;;;;;;15.68;4.55;;;;;;;;;;4891186;29;20049;-60
2021/05/18 00:31:59;;;;;;;13.65;4.13;;;;;;;;;;4900265;29;20190;-60
2021/05/18 00:34:25;;;;;;;13.73;4.60;;;;;;;;;;4912891;29;20047;-57
2021/05/18 00:36:51;;;;;;;15.20;4.22;;;;;;;;;;4920271;29;20062;-58
2021/05/18 00:39:18;;;;;;;15.65;4.63;;;;;;;;;;4931761;29;20047;-58
2021/05/18 00:41:44;;;;;;;14.15;4.50;;;;;;;;;;4916399;29;20043;-59
2021/05/18 00:44:10;;;;;;;16.27;4.30;;;;;;;;;;4911179;29;20036;-59
2021/05/18 00:46:37;;;;;;;14.07;4.70;;;;;;;;;;4913362;28;20040;-57
2021/05/18 00:49:03;;;;;;;11.27;4.22;;;;;;;;;;4931057;28;20044;-57
2021/05/18 00:51:30;;;;;;;17.58;4.20;;;;;;;;;;4928313;29;20110;-53
2021/05/18 00:53:58;;;;;;;16.77;4.90;;;;;;;;;;4948198;28;20035;-58
2021/05/18 00:56:34;;;;;;;13.10;3.73;;;;;;;;;;4926330;29;20055;-54
2021/05/18 00:59:00;;;;;;;15.10;4.03;;;;;;;;;;4905093;29;20044;-58
2021/05/18 01:01:26;;;;;;;11.73;4.28;;;;;;;;;;4889019;29;20106;-59
2021/05/18 01:03:54;;;;;;;12.88;4.20;;;;;;;;;;4929035;29;20051;-62
2021/05/18 01:06:24;;;;;;;13.05;4.05;;;;;;;;;;4931928;29;20051;-60
2021/05/18 01:08:51;;;;;;;12.05;4.10;;;;;;;;;;4909395;29;20052;-63
2021/05/18 01:11:20;;;;;;;12.70;4.30;;;;;;;;;;4911947;29;20036;-58
2021/05/18 01:14:00;;;;;;;13.57;3.95;;;;;;;;;;4940162;28;20048;-62
2021/05/18 01:16:29;;;;;;;14.45;4.30;;;;;;;;;;4948610;29;20047;-58
2021/05/18 01:18:56;;;;;;;12.32;4.25;;;;;;;;;;4943227;28;20138;-59
2021/05/18 01:21:24;;;;;;;11.50;4.45;;;;;;;;;;4950093;29;20099;-60
2021/05/18 01:23:50;;;;;;;11.80;4.65;;;;;;;;;;4962583;29;20055;-60
2021/05/18 01:26:17;;;;;;;10.68;4.45;;;;;;;;;;4929755;29;20039;-58
2021/05/18 01:28:43;;;;;;;11.40;4.22;;;;;;;;;;4909649;29;20051;-62
2021/05/18 01:31:11;;;;;;;10.70;4.32;;;;;;;;;;4910865;29;20048;-60
2021/05/18 01:33:37;;;;;;;10.52;4.38;;;;;;;;;;4909481;29;20134;-62
2021/05/18 01:36:04;;;;;;;12.48;4.25;;;;;;;;;;4911209;29;20039;-63
2021/05/18 01:38:35;;;;;;;10.57;4.18;;;;;;;;;;4908776;29;20084;-63
2021/05/18 01:43:53;;;;;;;11.63;4.78;;;;;;;;;;4920401;29;20032;-60
2021/05/18 01:46:20;;;;;;;9.98;4.72;;;;;;;;;;4911347;29;20048;-55
2021/05/18 01:48:57;;;;;;;15.35;4.95;;;;;;;;;;4908082;29;20036;-57
2021/05/18 01:51:24;;;;;;;13.13;5.40;;;;;;;;;;4910596;29;20094;-58
2021/05/18 01:53:51;;;;;;;11.50;5.22;;;;;;;;;;4909329;29;20150;-59
2021/05/18 01:56:32;;;;;;;15.40;5.63;;;;;;;;;;4912787;29;20036;-56
2021/05/18 01:59:01;;;;;;;16.02;5.35;;;;;;;;;;4910825;29;20478;-55
2021/05/18 02:01:27;;;;;;;15.20;5.75;;;;;;;;;;4919733;29;20051;-54
2021/05/18 02:03:53;;;;;;;16.42;5.45;;;;;;;;;;4910433;29;20059;-56
2021/05/18 02:06:19;;;;;;;12.48;5.97;;;;;;;;;;4928950;29;20024;-56
2021/05/18 02:08:45;;;;;;;17.08;5.80;;;;;;;;;;4929193;29;20101;-55
2021/05/18 02:11:12;;;;;;;14.23;5.82;;;;;;;;;;4925019;29;20040;-60
2021/05/18 02:13:47;;;;;;;17.85;6.22;;;;;;;;;;4929343;28;20067;-56
2021/05/18 02:16:15;;;;;;;19.95;5.85;;;;;;;;;;4926150;29;20054;-55
2021/05/18 02:19:00;;;;;;;17.65;5.50;;;;;;;;;;4929964;28;20054;-58
2021/05/18 02:21:46;;;;;;;20.65;6.38;;;;;;;;;;4926346;29;20043;-58
2021/05/18 02:26:57;;;;;;;15.30;6.18;;;;;;;;;;4907916;29;20339;-57
2021/05/18 02:29:23;;;;;;;18.17;6.40;;;;;;;;;;4911145;29;20036;-56
2021/05/18 02:31:54;;;;;;;20.33;5.95;;;;;;;;;;4924174;29;20047;-53
2021/05/18 02:34:20;;;;;;;14.65;6.57;;;;;;;;;;4930539;29;20079;-56
2021/05/18 02:36:46;;;;;;;19.58;6.43;;;;;;;;;;4926111;29;20043;-59
2021/05/18 02:39:12;;;;;;;16.27;5.60;;;;;;;;;;4929374;29;20039;-60
2021/05/18 02:41:39;;;;;;;15.38;6.03;;;;;;;;;;4926755;29;20118;-58
2021/05/18 02:44:10;;;;;;;21.17;6.82;;;;;;;;;;4930779;29;20047;-58
2021/05/18 02:49:22;;;;;;;15.90;5.90;;;;;;;;;;4910185;29;20040;-61
2021/05/18 02:52:03;;;;;;;19.17;5.85;;;;;;;;;;4912552;29;20024;-54
2021/05/18 02:54:29;;;;;;;12.93;5.43;;;;;;;;;;4930849;29;20040;-58
2021/05/18 02:56:58;;;;;;;18.83;6.18;;;;;;;;;;4909251;29;20035;-62
2021/05/18 02:59:25;;;;;;;17.98;6.07;;;;;;;;;;4928612;29;20040;-63
2021/05/18 03:01:52;;;;;;;16.40;6.10;;;;;;;;;;4912937;29;20056;-59
2021/05/18 03:04:18;;;;;;;18.48;6.18;;;;;;;;;;4920207;29;20072;-58
2021/05/18 03:06:47;;;;;;;16.50;6.10;;;;;;;;;;4890425;29;20040;-56
2021/05/18 03:09:13;;;;;;;13.32;5.97;;;;;;;;;;4908771;29;20040;-60
2021/05/18 03:11:42;;;;;;;16.83;5.90;;;;;;;;;;4906591;29;20083;-57
2021/05/18 03:14:08;;;;;;;;;;;;;;;;;;4918437;29;20020;-52
2021/05/18 03:16:35;;;;;;;10.77;4.40;;;;;;;;;;4930031;29;19938;-58
2021/05/18 03:19:01;;;;;;;18.08;5.05;;;;;;;;;;4923809;29;20032;-53
2021/05/18 03:21:27;;;;;;;15.35;5.22;;;;;;;;;;4912124;29;20044;-56
2021/05/18 03:23:53;;;;;;;12.57;5.55;;;;;;;;;;4907990;29;20047;-56
2021/05/18 03:26:20;;;;;;;17.85;5.32;;;;;;;;;;4899117;29;20583;-58
2021/05/18 03:28:48;;;;;;;17.17;5.45;;;;;;;;;;4914100;29;20046;-57
2021/05/18 03:36:39;;;;;;;21.10;5.05;;;;;;;;;;4929309;29;20039;-55
2021/05/18 03:39:05;;;;;;;13.38;6.10;;;;;;;;;;4914531;29;20036;-55
2021/05/18 03:41:42;;;;;;;14.63;5.82;;;;;;;;;;4927024;29;20485;-59
2021/05/18 03:44:16;;;;;;;13.73;5.50;;;;;;;;;;4924253;29;20040;-55
2021/05/18 03:52:20;;;;;;;14.90;6.22;;;;;;;;;;4911138;29;20040;-50
2021/05/18 03:54:55;;;;;;;22.75;6.22;;;;;;;;;;4936903;29;20028;-57
2021/05/18 04:02:59;;;;;;;17.10;6.40;;;;;;;;;;4890610;29;20047;-62
2021/05/18 04:11:19;;;;;;;20.80;7.47;;;;;;;;;;4911310;29;20036;-58
2021/05/18 04:19:33;;;;;;;16.77;7.43;;;;;;;;;;4850214;29;20133;-56
2021/05/18 04:22:18;;;;;;;16.30;7.63;;;;;;;;;;4880945;29;20046;-58
2021/05/18 04:38:55;;;;;;;20.05;8.80;;;;;;;;;;4911131;29;20047;-61
2021/05/18 04:41:37;;;;;;;21.50;9.13;;;;;;;;;;4909990;29;20036;-55
2021/05/18 04:52:26;;;;;;;20.83;10.18;;;;;;;;;;4908919;29;20051;-55
2021/05/18 04:58:57;;;;;;;19.73;9.63;;;;;;;;;;4912845;29;20517;-52
2021/05/18 05:00:54;;;;;;;21.10;9.85;;;;;;;;;;4891336;29;20040;-55
2021/05/18 05:06:30;;;;;;;20.77;9.43;;;;;;;;;;4869662;29;20071;-57
2021/05/18 05:09:04;;;;;;;19.08;9.32;;;;;;;;;;4909115;29;20047;-59
2021/05/18 05:14:20;;;;;;;22.10;10.00;;;;;;;;;;4911035;29;20052;-54
2021/05/18 05:16:46;;;;;;;;;;;;;;;;;;4903173;29;20028;-54
2021/05/18 05:19:12;;;;;;;20.80;9.57;;;;;;;;;;4908085;29;19934;-56
2021/05/18 05:21:42;;;;;;;18.60;9.20;;;;;;;;;;4904811;29;20051;-55
2021/05/18 05:24:09;;;;;;;21.33;10.30;;;;;;;;;;4908041;29;20087;-53
2021/05/18 05:26:36;;;;;;;22.60;10.73;;;;;;;;;;4923470;29;20071;-56
2021/05/18 05:29:03;;;;;;;26.83;10.65;;;;;;;;;;4905667;29;20052;-56
2021/05/18 05:31:32;;;;;;;26.17;11.32;;;;;;;;;;4906764;29;20110;-53
2021/05/18 05:33:58;;;;;;;26.92;11.55;;;;;;;;;;4905671;29;20052;-56
2021/05/18 05:36:24;;;;;;;25.08;11.40;;;;;;;;;;4908390;29;20036;-53
2021/05/18 05:38:50;;;;;;;26.23;11.57;;;;;;;;;;4906069;29;20035;-55
2021/05/18 05:41:17;;;;;;;22.92;11.32;;;;;;;;;;4910487;29;20044;-54
2021/05/18 05:43:44;;;;;;;20.63;10.52;;;;;;;;;;4914192;29;20044;-55
2021/05/18 05:46:10;;;;;;;22.13;11.05;;;;;;;;;;4923311;29;20048;-56
2021/05/18 05:48:36;;;;;;;24.88;11.30;;;;;;;;;;4904740;29;20053;-54
2021/05/18 05:51:04;;;;;;;24.10;11.15;;;;;;;;;;4908470;29;20032;-54
2021/05/18 05:53:31;;;;;;;24.60;10.70;;;;;;;;;;4913688;29;20059;-55
2021/05/18 05:55:57;;;;;;;25.05;11.32;;;;;;;;;;4900546;29;20076;-53
2021/05/18 05:58:23;;;;;;;25.17;11.18;;;;;;;;;;4907168;29;20047;-55
2021/05/18 06:00:50;;;;;;;32.13;14.18;;;;;;;;;;4908023;29;20064;-52
2021/05/18 06:03:16;;;;;;;29.42;14.65;;;;;;;;;;4904272;29;20040;-57
2021/05/18 06:05:42;;;;;;;21.05;10.88;;;;;;;;;;4902580;29;20039;-56
2021/05/18 06:08:08;;;;;;;23.20;9.55;;;;;;;;;;4923208;29;20052;-56
2021/05/18 06:10:37;;;;;;;23.90;11.13;;;;;;;;;;4901635;29;20050;-57
2021/05/18 06:41:16;;;;;;;27.77;11.63;;;;;;;;;;4941765;29;20036;-59
2021/05/18 06:43:55;;;;;;;25.40;11.20;;;;;;;;;;4928478;29;20068;-55
2021/05/18 06:46:24;;;;;;;27.75;12.88;;;;;;;;;;4914296;29;20048;-59
2021/05/18 06:48:57;;;;;;;29.10;13.20;;;;;;;;;;4908061;29;20043;-58
2021/05/18 06:51:24;;;;;;;23.60;11.32;;;;;;;;;;4908799;29;20071;-57
2021/05/18 06:53:50;;;;;;;32.72;14.70;;;;;;;;;;4909989;29;20068;-51
2021/05/18 06:56:17;;;;;;;32.22;14.82;;;;;;;;;;4908555;29;20036;-53
2021/05/18 07:00:06;;;;;;;26.55;12.68;;;;;;;;;;4911486;29;20130;-56
2021/05/18 07:01:42;;;;;;;28.10;11.85;;;;;;;;;;4905203;29;20020;-55
2021/05/18 07:04:09;;;;;;;24.27;11.40;;;;;;;;;;4910464;29;20186;-58
2021/05/18 07:06:45;;;;;;;25.13;11.23;;;;;;;;;;4931055;29;20072;-56
2021/05/18 07:09:11;;;;;;;29.50;11.43;;;;;;;;;;4929023;29;20050;-54
2021/05/18 07:11:43;;;;;;;24.50;10.73;;;;;;;;;;4908876;29;20079;-54
2021/05/18 07:14:09;;;;;;;25.20;12.50;;;;;;;;;;4897946;29;20087;-58
2021/05/18 07:16:36;;;;;;;23.90;11.63;;;;;;;;;;4922957;29;20043;-54
2021/05/18 07:19:02;;;;;;;26.45;11.35;;;;;;;;;;4912481;29;20024;-57
2021/05/18 07:21:29;;;;;;;26.35;12.02;;;;;;;;;;4916499;29;20084;-53
2021/05/18 07:23:56;;;;;;;22.83;11.02;;;;;;;;;;4928816;29;20020;-57
2021/05/18 07:26:23;;;;;;;26.63;11.55;;;;;;;;;;4902100;29;20043;-57
2021/05/18 07:28:49;;;;;;;22.60;11.30;;;;;;;;;;4923108;29;20050;-58
2021/05/18 07:31:15;;;;;;;22.75;10.77;;;;;;;;;;4929235;29;20047;-56
2021/05/18 07:33:41;;;;;;;21.38;10.48;;;;;;;;;;4924587;29;20053;-57
2021/05/18 07:36:08;;;;;;;20.63;10.00;;;;;;;;;;4946787;29;20043;-54
2021/05/18 07:38:35;;;;;;;21.05;10.95;;;;;;;;;;4925293;29;20039;-56
2021/05/18 07:41:02;;;;;;;19.70;10.10;;;;;;;;;;4919543;29;20044;-57
2021/05/18 07:43:28;;;;;;;21.08;10.52;;;;;;;;;;4924159;29;20047;-56
2021/05/18 07:45:56;;;;;;;23.85;10.40;;;;;;;;;;4935696;29;20060;-56
2021/05/18 07:48:26;;;;;;;18.87;8.70;;;;;;;;;;4924606;29;20134;-58
2021/05/18 07:51:01;;;;;;;21.52;9.40;;;;;;;;;;4916807;29;20290;-57
2021/05/18 07:59:22;;;;;;;17.48;8.68;;;;;;;;;;4911825;29;20090;-58
2021/05/18 08:02:23;;;;;;;21.88;10.23;;;;;;;;;;4914032;29;20040;-60
2021/05/18 08:07:40;;;;;;;20.77;10.40;;;;;;;;;;4952683;28;20046;-55
2021/05/18 08:10:11;;;;;;;22.30;9.68;;;;;;;;;;4948505;28;20047;-54
2021/05/18 08:12:39;;;;;;;18.85;9.55;;;;;;;;;;4954343;28;20039;-58
2021/05/18 08:15:22;;;;;;;17.23;8.85;;;;;;;;;;4938102;28;20067;-58
2021/05/18 08:17:55;;;;;;;21.25;9.68;;;;;;;;;;4934557;29;20111;-62
2021/05/18 08:20:35;;;;;;;30.42;13.43;;;;;;;;;;4943477;28;20050;-58
2021/05/18 10:34:32;;;;;;;11.02;4.43;;;;;;;;;;4927432;29;20043;-61
2021/05/18 10:37:17;;;;;;;12.20;4.07;;;;;;;;;;4924393;29;20039;-58
2021/05/18 10:39:43;;;;;;;9.00;4.60;;;;;;;;;;4911117;29;20061;-58
2021/05/18 10:42:11;;;;;;;11.77;5.10;;;;;;;;;;4909569;29;20083;-58
2021/05/18 10:44:52;;;;;;;16.52;4.53;;;;;;;;;;4907072;29;20054;-58
2021/05/18 10:47:21;;;;;;;9.25;4.38;;;;;;;;;;4909615;29;20036;-58
2021/05/18 10:49:53;;;;;;;12.80;4.95;;;;;;;;;;4910117;29;20099;-61
2021/05/18 10:52:35;;;;;;;9.43;2.70;;;;;;;;;;4928479;29;20035;-58
2021/05/18 10:55:01;;;;;;;6.43;2.33;;;;;;;;;;4924606;29;20052;-58
2021/05/18 10:57:31;;;;;;;14.25;2.80;;;;;;;;;;4928738;29;20118;-58
2021/05/18 11:00:00;;;;;;;14.48;2.45;;;;;;;;;;4925812;29;20037;-58
2021/05/18 11:02:29;;;;;;;5.93;2.30;;;;;;;;;;4929157;28;20043;-58
2021/05/18 11:04:58;;;;;;;6.38;2.53;;;;;;;;;;4928158;29;20043;-58
2021/05/18 11:07:24;;;;;;;;;;;;;;;;;;4925052;29;20043;-59
2021/05/18 11:09:51;;;;;;;6.68;2.72;;;;;;;;;;4927674;29;19997;-59
2021/05/18 11:12:18;;;;;;;8.02;3.10;;;;;;;;;;4909296;29;20044;-60
2021/05/18 11:14:45;;;;;;;8.68;3.38;;;;;;;;;;4909090;29;20047;-60
2021/05/18 11:17:18;;;;;;;8.48;3.63;;;;;;;;;;4918939;29;20039;-61
2021/05/18 11:19:46;;;;;;;8.45;3.47;;;;;;;;;;4928006;29;20048;-59
2021/05/18 11:22:14;;;;;;;7.80;3.58;;;;;;;;;;4912397;29;20092;-59
2021/05/18 11:24:46;;;;;;;8.20;3.83;;;;;;;;;;4909558;29;20051;-60
2021/05/18 11:27:12;;;;;;;14.18;3.97;;;;;;;;;;4896213;29;20039;-62
2021/05/18 11:29:42;;;;;;;14.45;5.20;;;;;;;;;;4908088;29;20131;-59
2021/05/18 11:32:14;;;;;;;11.40;3.85;;;;;;;;;;4911180;29;20051;-59
2021/05/18 11:34:53;;;;;;;10.57;4.28;;;;;;;;;;4920953;29;20043;-62
2021/05/18 11:37:19;;;;;;;10.70;3.97;;;;;;;;;;4904472;29;20043;-58
2021/05/18 11:39:46;;;;;;;9.60;3.80;;;;;;;;;;4910238;29;20111;-60
2021/05/18 11:42:12;;;;;;;9.57;3.65;;;;;;;;;;4928745;29;20054;-59
2021/05/18 11:44:42;;;;;;;7.95;3.50;;;;;;;;;;4908540;29;20028;-60
2021/05/18 11:47:08;;;;;;;5.68;2.17;;;;;;;;;;4906220;29;20043;-59
2021/05/18 11:49:34;;;;;;;6.22;2.38;;;;;;;;;;4927332;29;20059;-57
2021/05/18 11:52:01;;;;;;;6.38;2.13;;;;;;;;;;4907687;29;20044;-57
2021/05/18 11:54:28;;;;;;;5.95;3.13;;;;;;;;;;4927921;29;20044;-59
2021/05/18 11:56:55;;;;;;;9.45;3.83;;;;;;;;;;4944293;29;20067;-56
2021/05/18 11:59:23;;;;;;;7.85;3.42;;;;;;;;;;4937468;29;20071;-59
2021/05/18 12:01:50;;;;;;;5.28;2.42;;;;;;;;;;4928375;29;20042;-60
2021/05/18 12:04:17;;;;;;;4.05;1.60;;;;;;;;;;4922987;29;20040;-57
2021/05/18 12:06:53;;;;;;;4.15;1.70;;;;;;;;;;4929124;29;20039;-58
2021/05/18 12:09:20;;;;;;;6.90;2.55;;;;;;;;;;4910017;29;20044;-56
2021/05/18 12:11:51;;;;;;;8.55;2.65;;;;;;;;;;4909667;29;20110;-58
2021/05/18 12:14:17;;;;;;;6.68;2.42;;;;;;;;;;4917550;29;20051;-59
2021/05/18 12:16:44;;;;;;;11.82;2.70;;;;;;;;;;4928293;29;20046;-59
2021/05/18 12:19:11;;;;;;;7.65;2.17;;;;;;;;;;4919480;29;20039;-59
2021/05/18 12:21:40;;;;;;;18.00;2.78;;;;;;;;;;4927953;29;20047;-56
2021/05/18 12:24:07;;;;;;;7.30;2.72;;;;;;;;;;4916104;29;20046;-59
2021/05/18 12:26:43;;;;;;;6.65;2.20;;;;;;;;;;4897145;29;20036;-59
2021/05/18 12:29:10;;;;;;;4.07;1.70;;;;;;;;;;4895332;29;20044;-58
2021/05/18 12:31:37;;;;;;;7.15;2.00;;;;;;;;;;4912471;29;20048;-59
2021/05/18 12:34:03;;;;;;;4.78;2.05;;;;;;;;;;4929513;29;20047;-58
2021/05/18 12:36:30;;;;;;;5.10;2.20;;;;;;;;;;4929721;29;20032;-58
2021/05/18 12:39:09;;;;;;;7.00;2.38;;;;;;;;;;4926490;29;20054;-58
2021/05/18 12:41:56;;;;;;;3.72;1.63;;;;;;;;;;4915692;29;20028;-58
2021/05/18 12:44:24;;;;;;;9.80;2.08;;;;;;;;;;4903090;29;20050;-59
2021/05/18 12:46:59;;;;;;;6.65;1.70;;;;;;;;;;4912201;29;20036;-58
2021/05/18 12:49:25;;;;;;;4.30;1.70;;;;;;;;;;4908290;29;20099;-58
2021/05/18 12:52:07;;;;;;;4.22;1.60;;;;;;;;;;4929697;29;20131;-58
2021/05/18 12:54:39;;;;;;;5.28;1.70;;;;;;;;;;4926795;29;20046;-60
2021/05/18 12:57:05;;;;;;;3.13;1.63;;;;;;;;;;4931881;29;20090;-59
2021/05/18 12:59:32;;;;;;;6.00;1.90;;;;;;;;;;4927992;29;20058;-59
2021/05/18 13:01:59;;;;;;;4.78;2.15;;;;;;;;;;4900750;29;20058;-61
2021/05/18 13:04:25;;;;;;;1.90;1.20;;;;;;;;;;4925541;29;20054;-60
2021/05/18 13:06:51;;;;;;;9.55;1.48;;;;;;;;;;4924624;29;20036;-61
2021/05/18 13:09:18;;;;;;;14.48;2.42;;;;;;;;;;4911968;29;20051;-60
2021/05/18 13:14:28;;;;;;;5.70;1.90;;;;;;;;;;4911564;29;20047;-62
2021/05/18 13:17:04;;;;;;;7.07;1.98;;;;;;;;;;4923800;29;20047;-60
2021/05/18 13:19:30;;;;;;;10.02;1.85;;;;;;;;;;4910503;29;20131;-61
2021/05/18 13:21:58;;;;;;;9.48;2.22;;;;;;;;;;4919217;29;20146;-60
2021/05/18 13:26:25;;;;;;;100.00;9.50;;;;;;;;;;4929859;29;20035;-63
2021/05/18 13:27:12;;;;;;;;;;;;;;;;;;4910328;29;20293;-61
2021/05/18 13:29:38;;;;;;;11.20;2.58;;;;;;;;;;4912632;29;19927;-64
2021/05/18 13:32:07;;;;;;;6.85;2.15;;;;;;;;;;4930189;29;20036;-63
2021/05/18 13:34:33;;;;;;;10.00;2.15;;;;;;;;;;4931133;29;20059;-64
2021/05/18 13:36:59;;;;;;;5.82;1.98;;;;;;;;;;4911579;29;20131;-61
2021/05/18 13:39:26;;;;;;;5.97;2.08;;;;;;;;;;4910873;29;20040;-60
2021/05/18 13:41:52;;;;;;;4.88;1.67;;;;;;;;;;4917118;29;20128;-62
2021/05/18 13:44:18;;;;;;;7.55;1.88;;;;;;;;;;4911154;29;20122;-62
2021/05/18 13:46:46;;;;;;;13.20;2.65;;;;;;;;;;4924985;29;20056;-61
2021/05/18 13:49:13;;;;;;;13.35;2.72;;;;;;;;;;4911740;29;20040;-61
2021/05/18 13:51:42;;;;;;;26.67;2.72;;;;;;;;;;4908005;29;20072;-60
2021/05/18 13:54:08;;;;;;;4.35;2.00;;;;;;;;;;4929779;29;20036;-60
2021/05/18 13:56:34;;;;;;;8.20;2.13;;;;;;;;;;4930991;29;20068;-59
2021/05/18 13:59:00;;;;;;;6.70;1.60;;;;;;;;;;4927483;29;20054;-60
2021/05/18 14:01:26;;;;;;;7.03;1.85;;;;;;;;;;4945258;28;20036;-60
2021/05/18 14:03:53;;;;;;;5.40;1.90;;;;;;;;;;4911535;29;20055;-59
2021/05/18 14:06:23;;;;;;;5.38;2.33;;;;;;;;;;4910976;29;20063;-58
2021/05/18 14:08:49;;;;;;;7.32;2.35;;;;;;;;;;4920268;29;20043;-58
2021/05/18 14:11:17;;;;;;;3.88;1.90;;;;;;;;;;4931614;29;20039;-58
2021/05/18 14:13:44;;;;;;;8.25;2.05;;;;;;;;;;4941693;28;20058;-59
2021/05/18 14:16:14;;;;;;;8.13;1.90;;;;;;;;;;4948567;29;20058;-60
2021/05/18 14:18:40;;;;;;;8.00;2.22;;;;;;;;;;4926411;29;20129;-60
2021/05/18 14:21:07;;;;;;;10.73;2.10;;;;;;;;;;4930195;29;20039;-69
2021/05/18 14:23:43;;;;;;;6.28;2.08;;;;;;;;;;4920906;29;20040;-58
2021/05/18 14:26:09;;;;;;;10.27;4.60;;;;;;;;;;4918357;29;20047;-60
2021/05/18 14:28:35;;;;;;;5.43;2.53;;;;;;;;;;4897246;29;20067;-59
2021/05/18 14:31:02;;;;;;;4.20;1.85;;;;;;;;;;4929007;29;20051;-59
2021/05/18 14:33:34;;;;;;;5.32;1.80;;;;;;;;;;4921648;29;20065;-57
2021/05/18 14:36:01;;;;;;;2.72;1.25;;;;;;;;;;4909479;29;20048;-59
2021/05/18 14:38:27;;;;;;;4.85;1.50;;;;;;;;;;4907801;29;20118;-59
2021/05/18 14:44:02;;;;;;;4.18;1.58;;;;;;;;;;4887361;29;20035;-60
2021/05/18 14:46:32;;;;;;;2.55;1.45;;;;;;;;;;4909951;29;20050;-58
2021/05/18 14:57:11;;;;;;;5.82;1.40;;;;;;;;;;4902971;29;20028;-59
2021/05/18 14:59:37;;;;;;;1.80;1.17;;;;;;;;;;4910174;29;20125;-59
2021/05/18 15:02:03;;;;;;;2.97;1.40;;;;;;;;;;4931580;29;20113;-60
2021/05/18 15:04:30;;;;;;;3.65;1.17;;;;;;;;;;4927550;29;20051;-59
2021/05/18 15:06:57;;;;;;;4.88;1.23;;;;;;;;;;4947744;29;20044;-60
2021/05/18 15:09:23;;;;;;;3.13;1.27;;;;;;;;;;4916738;29;20055;-60
2021/05/18 15:11:56;;;;;;;3.22;0.93;;;;;;;;;;4923267;29;20043;-64
2021/05/18 15:14:24;;;;;;;3.10;0.80;;;;;;;;;;4908758;29;20050;-59
2021/05/18 15:16:51;;;;;;;4.53;0.85;;;;;;;;;;4905262;29;20048;-60
2021/05/18 15:19:18;;;;;;;2.10;0.82;;;;;;;;;;4910513;29;20055;-60
2021/05/18 15:21:46;;;;;;;5.78;0.47;;;;;;;;;;4905598;29;20047;-58
2021/05/18 15:24:12;;;;;;;1.92;0.85;;;;;;;;;;4909585;29;20024;-60
2021/05/18 15:26:38;;;;;;;5.07;1.00;;;;;;;;;;4905007;29;20039;-63
2021/05/18 15:29:05;;;;;;;2.65;0.90;;;;;;;;;;4909508;29;20028;-60
2021/05/18 15:31:39;;;;;;;4.05;0.90;;;;;;;;;;4914356;29;20027;-63
2021/05/18 15:34:05;;;;;;;0.60;0.60;;;;;;;;;;4918279;29;20131;-59
2021/05/18 15:36:31;;;;;;;1.77;1.00;;;;;;;;;;4923409;29;20044;-60
2021/05/18 15:38:57;;;;;;;2.05;0.75;;;;;;;;;;4910435;29;20044;-63
2021/05/18 15:41:23;;;;;;;2.05;0.82;;;;;;;;;;4915731;29;20064;-63
2021/05/18 15:43:49;;;;;;;7.35;0.82;;;;;;;;;;4910596;29;20143;-63
2021/05/18 15:46:16;;;;;;;5.30;2.00;;;;;;;;;;4908844;29;20042;-63
2021/05/18 15:48:43;;;;;;;5.20;1.50;;;;;;;;;;4928787;29;20039;-63
2021/05/18 15:51:09;;;;;;;8.75;1.42;;;;;;;;;;4946547;29;20044;-63
2021/05/18 15:53:36;;;;;;;4.63;0.98;;;;;;;;;;4913718;29;20032;-60
2021/05/18 15:56:03;;;;;;;6.90;0.90;;;;;;;;;;4910334;29;20032;-58
2021/05/18 15:58:29;;;;;;;7.22;0.90;;;;;;;;;;4885750;29;20040;-58
2021/05/18 16:00:55;;;;;;;2.45;1.08;;;;;;;;;;4909047;29;20040;-60
2021/05/18 16:03:21;;;;;;;2.83;1.17;;;;;;;;;;4908363;29;20056;-57
2021/05/18 16:05:49;;;;;;;1.73;1.02;;;;;;;;;;4920434;29;20122;-60
2021/05/18 16:11:02;;;;;;;2.97;0.70;;;;;;;;;;4905271;29;20039;-60
2021/05/18 16:13:30;;;;;;;2.63;0.75;;;;;;;;;;4903953;29;20075;-58
2021/05/18 16:15:57;;;;;;;2.80;1.00;;;;;;;;;;4926691;29;20040;-58
2021/05/18 16:18:25;;;;;;;3.25;0.90;;;;;;;;;;4904680;29;20054;-59
2021/05/18 16:20:52;;;;;;;2.40;0.80;;;;;;;;;;4923607;29;20040;-58
2021/05/18 16:23:24;;;;;;;2.95;0.93;;;;;;;;;;4905569;29;20072;-58
2021/05/18 16:25:50;;;;;;;2.40;0.93;;;;;;;;;;4908063;29;20044;-59
2021/05/18 16:28:16;;;;;;;1.40;0.80;;;;;;;;;;4906079;29;20050;-59
2021/05/18 16:30:42;;;;;;;1.77;0.95;;;;;;;;;;4907992;29;20044;-61
2021/05/18 16:33:09;;;;;;;1.42;0.85;;;;;;;;;;4904073;29;20104;-62
2021/05/18 16:35:35;;;;;;;1.77;0.70;;;;;;;;;;4908322;29;20059;-60
2021/05/18 16:38:03;;;;;;;3.10;1.10;;;;;;;;;;4923818;29;20044;-64
2021/05/18 16:40:29;;;;;;;;;;;;;;;;;;4913905;29;20052;-57
2021/05/18 16:42:57;;;;;;;5.15;0.90;;;;;;;;;;4924597;29;19923;-57
2021/05/18 16:45:23;;;;;;;2.70;1.00;;;;;;;;;;4918704;29;20053;-63
2021/05/18 16:47:50;;;;;;;5.55;0.90;;;;;;;;;;4925856;29;20042;-59
2021/05/18 16:50:16;;;;;;;3.50;1.10;;;;;;;;;;4905966;29;20036;-58
2021/05/18 16:52:42;;;;;;;8.82;1.05;;;;;;;;;;4907483;29;20051;-61
2021/05/18 16:55:09;;;;;;;3.03;0.80;;;;;;;;;;4906043;29;20040;-56
2021/05/18 16:57:35;;;;;;;3.83;0.70;;;;;;;;;;4909729;29;20040;-59
2021/05/18 17:00:02;;;;;;;3.38;0.80;;;;;;;;;;4904477;29;20066;-57
2021/05/18 17:02:28;;;;;;;6.60;0.80;;;;;;;;;;4905976;29;20052;-59
2021/05/18 17:04:55;;;;;;;1.17;0.70;;;;;;;;;;4923597;29;20032;-59
2021/05/18 17:07:23;;;;;;;2.40;0.70;;;;;;;;;;4908372;29;20051;-58
2021/05/18 17:09:49;;;;;;;5.35;1.00;;;;;;;;;;4899821;29;20069;-58
2021/05/18 17:12:19;;;;;;;11.63;1.00;;;;;;;;;;4908144;29;20032;-60
2021/05/18 17:14:45;;;;;;;11.70;0.90;;;;;;;;;;4904812;29;20613;-65
2021/05/18 17:17:13;;;;;;;6.75;0.82;;;;;;;;;;4907359;29;20059;-64
2021/05/18 17:19:39;;;;;;;1.63;0.70;;;;;;;;;;4904589;29;20047;-63
2021/05/18 17:22:06;;;;;;;3.00;0.70;;;;;;;;;;4906275;29;20052;-66
2021/05/18 17:24:34;;;;;;;2.75;0.75;;;;;;;;;;4919687;29;20060;-62
2021/05/18 17:27:01;;;;;;;0.98;0.65;;;;;;;;;;4899625;29;20072;-66
2021/05/18 17:29:28;;;;;;;2.47;0.70;;;;;;;;;;4907379;29;20047;-66
2021/05/18 17:31:56;;;;;;;22.38;1.60;;;;;;;;;;4904012;29;20125;-62
2021/05/18 17:34:22;;;;;;;12.38;1.90;;;;;;;;;;4908650;29;20048;-64
2021/05/18 17:36:50;;;;;;;5.13;0.82;;;;;;;;;;4922131;29;20035;-57
2021/05/18 17:39:16;;;;;;;4.55;0.80;;;;;;;;;;4906705;29;20090;-59
2021/05/18 17:41:45;;;;;;;2.83;0.70;;;;;;;;;;4902516;29;20055;-61
2021/05/18 17:44:11;;;;;;;5.47;0.90;;;;;;;;;;4904744;29;20036;-61
2021/05/18 17:46:39;;;;;;;4.53;1.00;;;;;;;;;;4908731;29;20060;-63
2021/05/18 17:49:05;;;;;;;0.95;0.60;;;;;;;;;;4904797;29;20040;-60
2021/05/18 17:51:34;;;;;;;5.05;0.93;;;;;;;;;;4902066;29;20059;-64
2021/05/18 17:54:00;;;;;;;0.85;0.50;;;;;;;;;;4907083;29;20039;-57
2021/05/18 17:56:26;;;;;;;2.88;0.77;;;;;;;;;;4902717;29;20055;-59
2021/05/18 17:58:52;;;;;;;7.38;0.90;;;;;;;;;;4905612;29;20055;-65
2021/05/18 18:01:19;;;;;;;24.50;2.15;;;;;;;;;;4900366;29;20060;-58
2021/05/18 18:03:46;;;;;;;4.07;0.70;;;;;;;;;;4920931;29;20059;-61
2021/05/18 18:06:12;;;;;;;5.18;0.60;;;;;;;;;;4908281;29;20114;-58
2021/05/18 18:08:40;;;;;;;2.60;0.60;;;;;;;;;;4903801;29;20076;-58
2021/05/18 18:11:06;;;;;;;3.17;0.73;;;;;;;;;;4908458;29;20048;-56
2021/05/18 18:13:32;;;;;;;3.80;0.60;;;;;;;;;;4902953;29;20063;-58
2021/05/18 18:16:02;;;;;;;1.67;0.75;;;;;;;;;;4921841;29;20040;-55
2021/05/18 18:18:30;;;;;;;2.20;0.70;;;;;;;;;;4940618;29;20043;-59
2021/05/18 18:20:57;;;;;;;3.63;0.85;;;;;;;;;;4909751;29;20051;-59
2021/05/18 18:23:24;;;;;;;9.05;0.80;;;;;;;;;;4905831;29;20050;-60
2021/05/18 18:25:50;;;;;;;3.08;0.73;;;;;;;;;;4905817;29;20048;-59
2021/05/18 18:28:18;;;;;;;2.47;0.60;;;;;;;;;;4902961;29;20113;-61
2021/05/18 18:30:44;;;;;;;3.50;0.88;;;;;;;;;;4909104;29;20050;-59
2021/05/18 18:33:11;;;;;;;3.58;0.60;;;;;;;;;;4900338;29;20052;-59
2021/05/18 18:35:37;;;;;;;2.47;0.60;;;;;;;;;;4907020;29;20040;-60
2021/05/18 18:38:07;;;;;;;2.50;0.90;;;;;;;;;;4904583;29;20107;-61
2021/05/18 18:40:33;;;;;;;2.10;0.77;;;;;;;;;;4912985;29;20056;-58
2021/05/18 18:43:05;;;;;;;2.22;0.90;;;;;;;;;;4921147;29;20060;-56
2021/05/18 18:45:34;;;;;;;1.05;0.80;;;;;;;;;;4898435;29;20055;-61
2021/05/18 18:48:01;;;;;;;5.65;0.90;;;;;;;;;;4905620;29;20048;-60
2021/05/18 18:50:34;;;;;;;2.22;0.93;;;;;;;;;;4901097;29;20071;-54
2021/05/18 18:53:13;;;;;;;11.95;3.75;;;;;;;;;;4904868;29;20034;-59
2021/05/18 18:55:41;;;;;;;3.53;1.55;;;;;;;;;;4902297;29;20092;-62
2021/05/18 18:58:10;;;;;;;1.42;0.90;;;;;;;;;;4908086;29;20100;-58
2021/05/18 19:00:37;;;;;;;1.67;0.82;;;;;;;;;;4901619;29;20111;-58